sensor_id;sensor_type;location;lat;lon;timestamp;temperature;humidity
13332;DHT22;6735;51.456;12.626;2023-04-07T00:01:03;2.70;62.40
13332;DHT22;6735;51.456;12.626;2023-04-07T00:03:28;2.70;62.60
13332;DHT22;6735;51.456;12.626;2023-04-07T00:05:54;2.70;62.70
13332;DHT22;6735;51.456;12.626;2023-04-07T00:08:19;2.80;62.70
13332;DHT22;6735;51.456;12.626;2023-04-07T00:10:45;2.80;62.50
13332;DHT22;6735;51.456;12.626;2023-04-07T00:13:11;2.80;62.50
13332;DHT22;6735;51.456;12.626;2023-04-07T00:15:36;2.80;62.10
13332;DHT22;6735;51.456;12.626;2023-04-07T00:18:02;2.80;62.40
13332;DHT22;6735;51.456;12.626;2023-04-07T00:20:27;2.80;62.60
13332;DHT22;6735;51.456;12.626;2023-04-07T00:22:53;2.80;62.20
13332;DHT22;6735;51.456;12.626;2023-04-07T00:25:18;2.80;62.10
13332;DHT22;6735;51.456;12.626;2023-04-07T00:27:44;2.70;62.80
13332;DHT22;6735;51.456;12.626;2023-04-07T00:30:09;2.70;62.90
13332;DHT22;6735;51.456;12.626;2023-04-07T00:32:35;2.60;63.20
13332;DHT22;6735;51.456;12.626;2023-04-07T00:35:00;2.60;62.80
13332;DHT22;6735;51.456;12.626;2023-04-07T00:37:26;2.60;63.20
13332;DHT22;6735;51.456;12.626;2023-04-07T00:39:51;2.60;63.20
13332;DHT22;6735;51.456;12.626;2023-04-07T00:42:18;2.60;63.00
13332;DHT22;6735;51.456;12.626;2023-04-07T00:44:43;2.60;63.80
13332;DHT22;6735;51.456;12.626;2023-04-07T00:47:09;2.60;63.60
13332;DHT22;6735;51.456;12.626;2023-04-07T00:49:36;2.50;64.10
13332;DHT22;6735;51.456;12.626;2023-04-07T00:52:01;2.50;64.30
13332;DHT22;6735;51.456;12.626;2023-04-07T00:54:29;2.50;64.70
13332;DHT22;6735;51.456;12.626;2023-04-07T00:56:55;2.40;65.10
13332;DHT22;6735;51.456;12.626;2023-04-07T00:59:21;2.40;65.40
13332;DHT22;6735;51.456;12.626;2023-04-07T01:04:32;2.30;65.20
13332;DHT22;6735;51.456;12.626;2023-04-07T01:07:30;2.20;65.30
13332;DHT22;6735;51.456;12.626;2023-04-07T01:09:56;2.20;65.60
13332;DHT22;6735;51.456;12.626;2023-04-07T01:15:47;2.10;65.70
13332;DHT22;6735;51.456;12.626;2023-04-07T01:18:18;2.00;66.20
13332;DHT22;6735;51.456;12.626;2023-04-07T01:20:49;1.90;66.00
13332;DHT22;6735;51.456;12.626;2023-04-07T01:23:22;1.90;66.10
13332;DHT22;6735;51.456;12.626;2023-04-07T01:31:22;1.90;66.50
13332;DHT22;6735;51.456;12.626;2023-04-07T01:33:52;1.80;67.00
13332;DHT22;6735;51.456;12.626;2023-04-07T01:36:20;1.80;67.20
13332;DHT22;6735;51.456;12.626;2023-04-07T01:38:47;1.80;67.60
13332;DHT22;6735;51.456;12.626;2023-04-07T01:41:13;1.80;67.40
13332;DHT22;6735;51.456;12.626;2023-04-07T01:43:40;1.70;67.70
13332;DHT22;6735;51.456;12.626;2023-04-07T01:46:06;1.70;68.00
13332;DHT22;6735;51.456;12.626;2023-04-07T01:48:33;1.60;68.20
13332;DHT22;6735;51.456;12.626;2023-04-07T01:51:20;1.60;67.90
13332;DHT22;6735;51.456;12.626;2023-04-07T01:53:47;1.60;67.60
13332;DHT22;6735;51.456;12.626;2023-04-07T01:56:13;1.60;67.80
13332;DHT22;6735;51.456;12.626;2023-04-07T01:58:39;1.50;68.00
13332;DHT22;6735;51.456;12.626;2023-04-07T02:01:04;1.50;68.30
13332;DHT22;6735;51.456;12.626;2023-04-07T02:03:35;1.50;68.10
13332;DHT22;6735;51.456;12.626;2023-04-07T02:06:06;1.50;68.40
13332;DHT22;6735;51.456;12.626;2023-04-07T02:08:35;1.40;68.30
13332;DHT22;6735;51.456;12.626;2023-04-07T02:11:02;1.40;68.60
13332;DHT22;6735;51.456;12.626;2023-04-07T02:13:30;1.40;69.40
13332;DHT22;6735;51.456;12.626;2023-04-07T02:15:57;1.40;69.10
13332;DHT22;6735;51.456;12.626;2023-04-07T02:18:24;1.40;69.60
13332;DHT22;6735;51.456;12.626;2023-04-07T02:20:51;1.40;69.60
13332;DHT22;6735;51.456;12.626;2023-04-07T02:23:18;1.40;69.50
13332;DHT22;6735;51.456;12.626;2023-04-07T02:25:43;1.30;69.10
13332;DHT22;6735;51.456;12.626;2023-04-07T02:28:09;1.30;69.40
13332;DHT22;6735;51.456;12.626;2023-04-07T02:30:35;1.30;69.40
13332;DHT22;6735;51.456;12.626;2023-04-07T02:33:00;1.30;69.50
13332;DHT22;6735;51.456;12.626;2023-04-07T02:35:26;1.30;70.00
13332;DHT22;6735;51.456;12.626;2023-04-07T02:37:51;1.20;70.00
13332;DHT22;6735;51.456;12.626;2023-04-07T02:40:17;1.20;70.20
13332;DHT22;6735;51.456;12.626;2023-04-07T02:42:43;1.20;69.80
13332;DHT22;6735;51.456;12.626;2023-04-07T02:45:09;1.20;69.80
13332;DHT22;6735;51.456;12.626;2023-04-07T02:47:37;1.20;70.20
13332;DHT22;6735;51.456;12.626;2023-04-07T02:50:03;1.20;70.10
13332;DHT22;6735;51.456;12.626;2023-04-07T02:52:28;1.10;70.30
13332;DHT22;6735;51.456;12.626;2023-04-07T02:54:54;1.20;70.60
13332;DHT22;6735;51.456;12.626;2023-04-07T02:57:19;1.10;70.60
13332;DHT22;6735;51.456;12.626;2023-04-07T02:59:45;1.10;70.20
13332;DHT22;6735;51.456;12.626;2023-04-07T03:02:11;1.10;70.10
13332;DHT22;6735;51.456;12.626;2023-04-07T03:04:36;1.10;70.00
13332;DHT22;6735;51.456;12.626;2023-04-07T03:07:02;1.10;70.00
13332;DHT22;6735;51.456;12.626;2023-04-07T03:09:27;1.00;69.50
13332;DHT22;6735;51.456;12.626;2023-04-07T03:11:53;1.00;69.60
13332;DHT22;6735;51.456;12.626;2023-04-07T03:14:18;1.00;70.00
13332;DHT22;6735;51.456;12.626;2023-04-07T03:16:44;1.00;69.90
13332;DHT22;6735;51.456;12.626;2023-04-07T03:19:09;1.00;70.10
13332;DHT22;6735;51.456;12.626;2023-04-07T03:21:36;1.00;70.30
13332;DHT22;6735;51.456;12.626;2023-04-07T03:24:02;1.00;70.30
13332;DHT22;6735;51.456;12.626;2023-04-07T03:26:27;0.90;70.30
13332;DHT22;6735;51.456;12.626;2023-04-07T03:28:53;0.90;70.10
13332;DHT22;6735;51.456;12.626;2023-04-07T03:31:18;0.90;70.50
13332;DHT22;6735;51.456;12.626;2023-04-07T03:33:44;0.90;70.40
13332;DHT22;6735;51.456;12.626;2023-04-07T03:36:09;0.80;70.50
13332;DHT22;6735;51.456;12.626;2023-04-07T03:38:35;0.80;70.60
13332;DHT22;6735;51.456;12.626;2023-04-07T03:41:00;0.80;70.60
13332;DHT22;6735;51.456;12.626;2023-04-07T03:43:26;0.80;70.90
13332;DHT22;6735;51.456;12.626;2023-04-07T03:45:52;0.80;71.00
13332;DHT22;6735;51.456;12.626;2023-04-07T03:48:18;0.70;71.20
13332;DHT22;6735;51.456;12.626;2023-04-07T03:50:44;0.70;71.60
13332;DHT22;6735;51.456;12.626;2023-04-07T03:53:10;0.70;71.60
13332;DHT22;6735;51.456;12.626;2023-04-07T03:55:38;0.70;71.60
13332;DHT22;6735;51.456;12.626;2023-04-07T03:58:04;0.60;71.50
13332;DHT22;6735;51.456;12.626;2023-04-07T04:00:29;0.60;71.80
13332;DHT22;6735;51.456;12.626;2023-04-07T04:02:57;0.60;71.30
13332;DHT22;6735;51.456;12.626;2023-04-07T04:05:23;0.60;71.90
13332;DHT22;6735;51.456;12.626;2023-04-07T04:07:48;0.60;71.80
13332;DHT22;6735;51.456;12.626;2023-04-07T04:10:15;0.50;72.60
13332;DHT22;6735;51.456;12.626;2023-04-07T04:12:41;0.50;73.00
13332;DHT22;6735;51.456;12.626;2023-04-07T04:15:06;0.50;73.20
13332;DHT22;6735;51.456;12.626;2023-04-07T04:17:32;0.50;73.30
13332;DHT22;6735;51.456;12.626;2023-04-07T04:19:57;0.50;73.20
13332;DHT22;6735;51.456;12.626;2023-04-07T04:22:23;0.50;73.70
13332;DHT22;6735;51.456;12.626;2023-04-07T04:24:48;0.50;73.30
13332;DHT22;6735;51.456;12.626;2023-04-07T04:27:14;0.50;73.20
13332;DHT22;6735;51.456;12.626;2023-04-07T04:29:39;0.40;73.70
13332;DHT22;6735;51.456;12.626;2023-04-07T04:32:05;0.50;73.60
13332;DHT22;6735;51.456;12.626;2023-04-07T04:34:30;0.50;72.90
13332;DHT22;6735;51.456;12.626;2023-04-07T04:36:56;0.50;73.60
13332;DHT22;6735;51.456;12.626;2023-04-07T04:39:21;0.40;72.90
13332;DHT22;6735;51.456;12.626;2023-04-07T04:41:47;0.50;73.10
13332;DHT22;6735;51.456;12.626;2023-04-07T04:44:12;0.50;72.90
13332;DHT22;6735;51.456;12.626;2023-04-07T04:46:38;0.50;73.30
13332;DHT22;6735;51.456;12.626;2023-04-07T04:49:03;0.50;73.30
13332;DHT22;6735;51.456;12.626;2023-04-07T04:51:28;0.50;73.50
13332;DHT22;6735;51.456;12.626;2023-04-07T04:53:54;0.50;73.40
13332;DHT22;6735;51.456;12.626;2023-04-07T04:56:20;0.50;73.30
13332;DHT22;6735;51.456;12.626;2023-04-07T04:58:45;0.50;73.40
13332;DHT22;6735;51.456;12.626;2023-04-07T05:01:11;0.60;73.20
13332;DHT22;6735;51.456;12.626;2023-04-07T05:03:37;0.60;73.40
13332;DHT22;6735;51.456;12.626;2023-04-07T05:06:03;0.60;73.70
13332;DHT22;6735;51.456;12.626;2023-04-07T05:08:28;0.70;73.70
13332;DHT22;6735;51.456;12.626;2023-04-07T05:10:54;0.70;73.80
13332;DHT22;6735;51.456;12.626;2023-04-07T05:13:20;0.80;73.70
13332;DHT22;6735;51.456;12.626;2023-04-07T05:15:45;1.10;73.50
13332;DHT22;6735;51.456;12.626;2023-04-07T05:18:11;1.50;72.70
13332;DHT22;6735;51.456;12.626;2023-04-07T05:20:37;2.30;71.50
13332;DHT22;6735;51.456;12.626;2023-04-07T05:23:02;3.20;68.90
13332;DHT22;6735;51.456;12.626;2023-04-07T05:25:28;3.60;66.00
13332;DHT22;6735;51.456;12.626;2023-04-07T05:27:53;3.50;66.20
13332;DHT22;6735;51.456;12.626;2023-04-07T05:30:19;3.40;65.90
13332;DHT22;6735;51.456;12.626;2023-04-07T05:32:44;3.90;65.50
13332;DHT22;6735;51.456;12.626;2023-04-07T05:35:10;4.40;64.40
13332;DHT22;6735;51.456;12.626;2023-04-07T05:37:36;4.70;62.90
13332;DHT22;6735;51.456;12.626;2023-04-07T05:40:01;4.50;62.70
13332;DHT22;6735;51.456;12.626;2023-04-07T05:42:27;4.30;63.20
13332;DHT22;6735;51.456;12.626;2023-04-07T05:44:52;4.10;63.90
13332;DHT22;6735;51.456;12.626;2023-04-07T05:47:18;4.30;63.90
13332;DHT22;6735;51.456;12.626;2023-04-07T05:49:44;5.20;62.00
13332;DHT22;6735;51.456;12.626;2023-04-07T05:52:12;6.10;60.00
13332;DHT22;6735;51.456;12.626;2023-04-07T05:54:38;7.30;57.10
13332;DHT22;6735;51.456;12.626;2023-04-07T05:57:05;8.10;53.10
13332;DHT22;6735;51.456;12.626;2023-04-07T05:59:30;8.90;52.80
13332;DHT22;6735;51.456;12.626;2023-04-07T06:01:56;9.60;49.10
13332;DHT22;6735;51.456;12.626;2023-04-07T06:04:21;9.80;48.90
13332;DHT22;6735;51.456;12.626;2023-04-07T06:06:47;9.60;50.20
13332;DHT22;6735;51.456;12.626;2023-04-07T06:09:12;8.90;50.70
13332;DHT22;6735;51.456;12.626;2023-04-07T06:11:38;8.30;52.60
13332;DHT22;6735;51.456;12.626;2023-04-07T06:14:03;8.00;52.90
13332;DHT22;6735;51.456;12.626;2023-04-07T06:16:29;7.60;53.10
13332;DHT22;6735;51.456;12.626;2023-04-07T06:18:54;7.20;53.60
13332;DHT22;6735;51.456;12.626;2023-04-07T06:21:20;7.10;54.20
13332;DHT22;6735;51.456;12.626;2023-04-07T06:23:45;6.90;54.20
13332;DHT22;6735;51.456;12.626;2023-04-07T06:26:11;6.80;54.40
13332;DHT22;6735;51.456;12.626;2023-04-07T06:28:37;6.60;54.70
13332;DHT22;6735;51.456;12.626;2023-04-07T06:31:03;6.60;55.10
13332;DHT22;6735;51.456;12.626;2023-04-07T06:33:28;6.60;54.90
13332;DHT22;6735;51.456;12.626;2023-04-07T06:35:54;6.50;54.80
13332;DHT22;6735;51.456;12.626;2023-04-07T06:38:21;6.50;55.00
13332;DHT22;6735;51.456;12.626;2023-04-07T06:40:46;6.60;55.20
13332;DHT22;6735;51.456;12.626;2023-04-07T06:43:12;6.60;55.00
13332;DHT22;6735;51.456;12.626;2023-04-07T06:45:37;6.50;54.50
13332;DHT22;6735;51.456;12.626;2023-04-07T06:48:03;6.60;54.80
13332;DHT22;6735;51.456;12.626;2023-04-07T06:50:28;6.60;54.80
13332;DHT22;6735;51.456;12.626;2023-04-07T06:52:53;6.70;54.70
13332;DHT22;6735;51.456;12.626;2023-04-07T06:55:19;6.70;54.60
13332;DHT22;6735;51.456;12.626;2023-04-07T06:57:45;6.60;54.90
13332;DHT22;6735;51.456;12.626;2023-04-07T07:00:11;6.70;55.00
13332;DHT22;6735;51.456;12.626;2023-04-07T07:02:36;6.80;55.00
13332;DHT22;6735;51.456;12.626;2023-04-07T07:05:02;7.10;56.80
13332;DHT22;6735;51.456;12.626;2023-04-07T07:07:29;7.10;54.50
13332;DHT22;6735;51.456;12.626;2023-04-07T07:09:54;7.30;54.30
13332;DHT22;6735;51.456;12.626;2023-04-07T07:12:20;7.30;54.40
13332;DHT22;6735;51.456;12.626;2023-04-07T07:14:45;7.60;54.40
13332;DHT22;6735;51.456;12.626;2023-04-07T07:17:11;7.80;53.40
13332;DHT22;6735;51.456;12.626;2023-04-07T07:19:37;9.00;50.10
13332;DHT22;6735;51.456;12.626;2023-04-07T07:22:03;10.00;48.40
13332;DHT22;6735;51.456;12.626;2023-04-07T07:24:29;10.80;46.80
13332;DHT22;6735;51.456;12.626;2023-04-07T07:26:58;11.20;44.80
13332;DHT22;6735;51.456;12.626;2023-04-07T07:29:23;11.60;46.00
13332;DHT22;6735;51.456;12.626;2023-04-07T07:31:49;12.00;43.70
13332;DHT22;6735;51.456;12.626;2023-04-07T07:34:14;12.50;43.00
13332;DHT22;6735;51.456;12.626;2023-04-07T07:36:40;13.10;42.50
13332;DHT22;6735;51.456;12.626;2023-04-07T07:39:06;13.20;42.30
13332;DHT22;6735;51.456;12.626;2023-04-07T07:41:32;13.20;42.50
13332;DHT22;6735;51.456;12.626;2023-04-07T07:43:57;12.80;43.40
13332;DHT22;6735;51.456;12.626;2023-04-07T07:46:23;12.60;42.70
13332;DHT22;6735;51.456;12.626;2023-04-07T07:48:50;12.20;42.10
13332;DHT22;6735;51.456;12.626;2023-04-07T07:51:16;11.90;42.70
13332;DHT22;6735;51.456;12.626;2023-04-07T07:53:45;11.80;43.30
13332;DHT22;6735;51.456;12.626;2023-04-07T07:56:11;11.90;43.60
13332;DHT22;6735;51.456;12.626;2023-04-07T07:58:37;12.20;43.80
13332;DHT22;6735;51.456;12.626;2023-04-07T08:01:03;12.30;41.00
13332;DHT22;6735;51.456;12.626;2023-04-07T08:03:28;12.70;41.80
13332;DHT22;6735;51.456;12.626;2023-04-07T08:05:54;13.10;39.70
13332;DHT22;6735;51.456;12.626;2023-04-07T08:08:19;13.40;38.70
13332;DHT22;6735;51.456;12.626;2023-04-07T08:10:45;13.70;38.90
13332;DHT22;6735;51.456;12.626;2023-04-07T08:13:10;13.70;37.40
13332;DHT22;6735;51.456;12.626;2023-04-07T08:15:36;13.90;38.00
13332;DHT22;6735;51.456;12.626;2023-04-07T08:18:02;14.10;37.40
13332;DHT22;6735;51.456;12.626;2023-04-07T08:20:30;14.20;37.80
13332;DHT22;6735;51.456;12.626;2023-04-07T08:22:56;14.00;37.10
13332;DHT22;6735;51.456;12.626;2023-04-07T08:25:21;13.60;36.40
13332;DHT22;6735;51.456;12.626;2023-04-07T08:27:47;13.10;37.00
13332;DHT22;6735;51.456;12.626;2023-04-07T08:30:12;13.10;36.60
13332;DHT22;6735;51.456;12.626;2023-04-07T08:32:42;13.10;36.70
13332;DHT22;6735;51.456;12.626;2023-04-07T08:35:07;12.80;35.70
13332;DHT22;6735;51.456;12.626;2023-04-07T08:37:33;12.70;37.00
13332;DHT22;6735;51.456;12.626;2023-04-07T08:40:02;12.90;36.40
13332;DHT22;6735;51.456;12.626;2023-04-07T08:42:29;13.00;36.50
13332;DHT22;6735;51.456;12.626;2023-04-07T08:44:56;13.10;36.10
13332;DHT22;6735;51.456;12.626;2023-04-07T08:47:25;13.40;36.30
13332;DHT22;6735;51.456;12.626;2023-04-07T08:49:52;13.70;36.30
13332;DHT22;6735;51.456;12.626;2023-04-07T08:52:22;13.50;35.60
13332;DHT22;6735;51.456;12.626;2023-04-07T08:54:48;13.20;35.20
13332;DHT22;6735;51.456;12.626;2023-04-07T08:57:15;13.20;35.60
13332;DHT22;6735;51.456;12.626;2023-04-07T08:59:41;13.30;35.50
13332;DHT22;6735;51.456;12.626;2023-04-07T09:02:10;13.40;35.30
13332;DHT22;6735;51.456;12.626;2023-04-07T09:04:35;13.20;34.60
13332;DHT22;6735;51.456;12.626;2023-04-07T09:07:01;12.90;34.60
13332;DHT22;6735;51.456;12.626;2023-04-07T09:09:27;13.10;34.70
13332;DHT22;6735;51.456;12.626;2023-04-07T09:11:53;13.10;33.40
13332;DHT22;6735;51.456;12.626;2023-04-07T09:14:20;12.90;34.70
13332;DHT22;6735;51.456;12.626;2023-04-07T09:16:46;13.00;34.50
13332;DHT22;6735;51.456;12.626;2023-04-07T09:19:11;12.90;34.50
13332;DHT22;6735;51.456;12.626;2023-04-07T09:21:48;13.10;34.20
13332;DHT22;6735;51.456;12.626;2023-04-07T09:24:22;13.40;33.10
13332;DHT22;6735;51.456;12.626;2023-04-07T09:26:47;13.10;33.70
13332;DHT22;6735;51.456;12.626;2023-04-07T09:29:18;13.20;34.00
13332;DHT22;6735;51.456;12.626;2023-04-07T09:31:48;13.30;33.90
13332;DHT22;6735;51.456;12.626;2023-04-07T09:34:27;13.10;33.80
13332;DHT22;6735;51.456;12.626;2023-04-07T09:36:53;13.20;33.80
13332;DHT22;6735;51.456;12.626;2023-04-07T09:39:19;13.30;34.90
13332;DHT22;6735;51.456;12.626;2023-04-07T09:41:45;13.20;33.80
13332;DHT22;6735;51.456;12.626;2023-04-07T09:44:11;13.10;34.10
13332;DHT22;6735;51.456;12.626;2023-04-07T09:46:51;13.00;34.60
13332;DHT22;6735;51.456;12.626;2023-04-07T09:49:16;13.30;33.70
13332;DHT22;6735;51.456;12.626;2023-04-07T09:51:58;13.60;34.10
13332;DHT22;6735;51.456;12.626;2023-04-07T09:54:34;13.70;33.20
13332;DHT22;6735;51.456;12.626;2023-04-07T09:57:01;13.70;32.60
13332;DHT22;6735;51.456;12.626;2023-04-07T09:59:28;13.20;34.00
13332;DHT22;6735;51.456;12.626;2023-04-07T10:01:54;13.40;33.60
13332;DHT22;6735;51.456;12.626;2023-04-07T10:04:21;13.20;33.60
13332;DHT22;6735;51.456;12.626;2023-04-07T10:06:47;13.20;33.40
13332;DHT22;6735;51.456;12.626;2023-04-07T10:09:12;13.40;32.90
13332;DHT22;6735;51.456;12.626;2023-04-07T10:11:39;13.30;33.00
13332;DHT22;6735;51.456;12.626;2023-04-07T10:14:06;13.40;33.00
13332;DHT22;6735;51.456;12.626;2023-04-07T10:16:32;13.40;33.10
13332;DHT22;6735;51.456;12.626;2023-04-07T10:18:57;13.40;32.90
13332;DHT22;6735;51.456;12.626;2023-04-07T10:21:23;13.40;33.00
13332;DHT22;6735;51.456;12.626;2023-04-07T10:23:56;13.70;32.10
13332;DHT22;6735;51.456;12.626;2023-04-07T10:26:25;13.80;32.30
13332;DHT22;6735;51.456;12.626;2023-04-07T10:28:56;13.90;32.30
13332;DHT22;6735;51.456;12.626;2023-04-07T10:31:23;14.20;32.50
13332;DHT22;6735;51.456;12.626;2023-04-07T10:33:53;14.50;32.50
13332;DHT22;6735;51.456;12.626;2023-04-07T10:36:21;14.90;31.80
13332;DHT22;6735;51.456;12.626;2023-04-07T10:41:35;14.80;31.20
13332;DHT22;6735;51.456;12.626;2023-04-07T10:44:01;14.90;31.60
13332;DHT22;6735;51.456;12.626;2023-04-07T10:49:16;14.50;31.50
13332;DHT22;6735;51.456;12.626;2023-04-07T10:51:42;14.60;32.00
13332;DHT22;6735;51.456;12.626;2023-04-07T10:54:14;14.30;31.50
13332;DHT22;6735;51.456;12.626;2023-04-07T10:57:03;14.30;31.70
13332;DHT22;6735;51.456;12.626;2023-04-07T10:59:29;14.60;30.90
13332;DHT22;6735;51.456;12.626;2023-04-07T11:04:44;14.90;31.00
13332;DHT22;6735;51.456;12.626;2023-04-07T11:07:11;14.80;31.80
13332;DHT22;6735;51.456;12.626;2023-04-07T11:09:37;15.10;31.90
13332;DHT22;6735;51.456;12.626;2023-04-07T11:12:02;14.90;31.80
13332;DHT22;6735;51.456;12.626;2023-04-07T11:14:30;14.90;32.10
13332;DHT22;6735;51.456;12.626;2023-04-07T11:16:56;14.90;32.00
13332;DHT22;6735;51.456;12.626;2023-04-07T11:19:22;14.70;32.00
13332;DHT22;6735;51.456;12.626;2023-04-07T11:21:48;14.70;32.60
13332;DHT22;6735;51.456;12.626;2023-04-07T11:24:33;14.70;32.30
13332;DHT22;6735;51.456;12.626;2023-04-07T11:26:59;14.60;31.60
13332;DHT22;6735;51.456;12.626;2023-04-07T11:29:32;14.60;32.30
13332;DHT22;6735;51.456;12.626;2023-04-07T11:32:01;14.80;32.10
13332;DHT22;6735;51.456;12.626;2023-04-07T11:34:30;15.00;31.60
13332;DHT22;6735;51.456;12.626;2023-04-07T11:36:57;14.80;31.30
13332;DHT22;6735;51.456;12.626;2023-04-07T11:39:27;14.70;31.90
13332;DHT22;6735;51.456;12.626;2023-04-07T11:41:55;14.70;32.20
13332;DHT22;6735;51.456;12.626;2023-04-07T11:44:21;14.90;31.70
13332;DHT22;6735;51.456;12.626;2023-04-07T11:46:56;14.70;32.40
13332;DHT22;6735;51.456;12.626;2023-04-07T11:49:23;14.90;32.20
13332;DHT22;6735;51.456;12.626;2023-04-07T11:51:58;15.10;32.10
13332;DHT22;6735;51.456;12.626;2023-04-07T11:54:24;15.10;31.50
13332;DHT22;6735;51.456;12.626;2023-04-07T11:56:49;15.10;31.90
13332;DHT22;6735;51.456;12.626;2023-04-07T11:59:24;14.90;32.10
13332;DHT22;6735;51.456;12.626;2023-04-07T12:01:51;14.80;32.10
13332;DHT22;6735;51.456;12.626;2023-04-07T12:04:17;14.70;32.20
13332;DHT22;6735;51.456;12.626;2023-04-07T12:06:45;14.80;32.00
13332;DHT22;6735;51.456;12.626;2023-04-07T12:09:30;14.90;32.00
13332;DHT22;6735;51.456;12.626;2023-04-07T12:11:56;14.80;32.30
13332;DHT22;6735;51.456;12.626;2023-04-07T12:14:23;14.70;32.60
13332;DHT22;6735;51.456;12.626;2023-04-07T12:16:49;14.80;32.20
13332;DHT22;6735;51.456;12.626;2023-04-07T12:19:15;14.90;32.00
13332;DHT22;6735;51.456;12.626;2023-04-07T12:21:40;14.70;32.00
13332;DHT22;6735;51.456;12.626;2023-04-07T12:24:06;14.70;31.80
13332;DHT22;6735;51.456;12.626;2023-04-07T12:26:31;14.90;31.60
13332;DHT22;6735;51.456;12.626;2023-04-07T12:28:57;14.60;32.10
13332;DHT22;6735;51.456;12.626;2023-04-07T12:31:32;14.70;32.10
13332;DHT22;6735;51.456;12.626;2023-04-07T12:33:58;14.90;32.00
13332;DHT22;6735;51.456;12.626;2023-04-07T12:36:24;15.00;32.00
13332;DHT22;6735;51.456;12.626;2023-04-07T12:38:57;14.80;32.40
13332;DHT22;6735;51.456;12.626;2023-04-07T12:41:24;14.80;32.20
13332;DHT22;6735;51.456;12.626;2023-04-07T12:43:49;14.70;32.60
13332;DHT22;6735;51.456;12.626;2023-04-07T12:46:15;14.80;32.60
13332;DHT22;6735;51.456;12.626;2023-04-07T12:48:40;14.80;32.60
13332;DHT22;6735;51.456;12.626;2023-04-07T12:51:06;15.10;32.40
13332;DHT22;6735;51.456;12.626;2023-04-07T12:53:31;15.10;32.20
13332;DHT22;6735;51.456;12.626;2023-04-07T12:55:57;15.10;32.30
13332;DHT22;6735;51.456;12.626;2023-04-07T12:58:23;15.10;32.20
13332;DHT22;6735;51.456;12.626;2023-04-07T13:00:49;15.00;32.40
13332;DHT22;6735;51.456;12.626;2023-04-07T13:03:15;14.90;32.60
13332;DHT22;6735;51.456;12.626;2023-04-07T13:05:40;14.70;33.00
13332;DHT22;6735;51.456;12.626;2023-04-07T13:08:06;14.60;32.60
13332;DHT22;6735;51.456;12.626;2023-04-07T13:10:32;14.70;32.40
13332;DHT22;6735;51.456;12.626;2023-04-07T13:12:58;14.80;32.00
13332;DHT22;6735;51.456;12.626;2023-04-07T13:15:23;14.30;32.30
13332;DHT22;6735;51.456;12.626;2023-04-07T13:17:49;14.60;32.10
13332;DHT22;6735;51.456;12.626;2023-04-07T13:20:14;14.70;31.90
13332;DHT22;6735;51.456;12.626;2023-04-07T13:22:40;14.90;31.40
13332;DHT22;6735;51.456;12.626;2023-04-07T13:25:06;14.90;31.80
13332;DHT22;6735;51.456;12.626;2023-04-07T13:27:31;14.90;31.80
13332;DHT22;6735;51.456;12.626;2023-04-07T13:29:57;15.10;31.60
13332;DHT22;6735;51.456;12.626;2023-04-07T13:32:22;15.00;31.60
13332;DHT22;6735;51.456;12.626;2023-04-07T13:34:48;14.90;31.70
13332;DHT22;6735;51.456;12.626;2023-04-07T13:37:13;14.60;32.00
13332;DHT22;6735;51.456;12.626;2023-04-07T13:39:39;14.50;32.60
13332;DHT22;6735;51.456;12.626;2023-04-07T13:42:04;14.40;32.70
13332;DHT22;6735;51.456;12.626;2023-04-07T13:44:31;14.70;32.80
13332;DHT22;6735;51.456;12.626;2023-04-07T13:46:58;14.60;33.00
13332;DHT22;6735;51.456;12.626;2023-04-07T13:49:23;14.10;33.80
13332;DHT22;6735;51.456;12.626;2023-04-07T13:51:49;13.90;34.20
13332;DHT22;6735;51.456;12.626;2023-04-07T13:54:15;14.00;34.40
13332;DHT22;6735;51.456;12.626;2023-04-07T13:56:42;13.90;34.00
13332;DHT22;6735;51.456;12.626;2023-04-07T13:59:08;13.60;34.10
13332;DHT22;6735;51.456;12.626;2023-04-07T14:01:33;13.60;34.40
13332;DHT22;6735;51.456;12.626;2023-04-07T14:04:00;13.60;34.30
13332;DHT22;6735;51.456;12.626;2023-04-07T14:06:27;13.60;34.30
13332;DHT22;6735;51.456;12.626;2023-04-07T14:08:52;13.50;34.30
13332;DHT22;6735;51.456;12.626;2023-04-07T14:11:18;13.60;34.30
13332;DHT22;6735;51.456;12.626;2023-04-07T14:13:45;13.50;34.20
13332;DHT22;6735;51.456;12.626;2023-04-07T14:16:10;13.50;34.00
13332;DHT22;6735;51.456;12.626;2023-04-07T14:18:36;13.60;33.90
13332;DHT22;6735;51.456;12.626;2023-04-07T14:21:03;13.50;34.00
13332;DHT22;6735;51.456;12.626;2023-04-07T14:23:28;13.60;33.70
13332;DHT22;6735;51.456;12.626;2023-04-07T14:25:54;13.40;33.70
13332;DHT22;6735;51.456;12.626;2023-04-07T14:28:19;13.50;33.70
13332;DHT22;6735;51.456;12.626;2023-04-07T14:30:45;13.30;34.10
13332;DHT22;6735;51.456;12.626;2023-04-07T14:33:11;13.20;34.70
13332;DHT22;6735;51.456;12.626;2023-04-07T14:35:37;13.00;34.90
13332;DHT22;6735;51.456;12.626;2023-04-07T14:38:02;12.90;35.30
13332;DHT22;6735;51.456;12.626;2023-04-07T14:40:28;12.90;35.80
13332;DHT22;6735;51.456;12.626;2023-04-07T14:42:53;12.80;35.30
13332;DHT22;6735;51.456;12.626;2023-04-07T14:45:20;12.80;35.50
13332;DHT22;6735;51.456;12.626;2023-04-07T14:47:45;12.90;35.70
13332;DHT22;6735;51.456;12.626;2023-04-07T14:50:11;12.90;35.50
13332;DHT22;6735;51.456;12.626;2023-04-07T14:52:37;12.90;35.70
13332;DHT22;6735;51.456;12.626;2023-04-07T14:55:02;12.70;36.20
13332;DHT22;6735;51.456;12.626;2023-04-07T14:57:28;12.80;35.90
13332;DHT22;6735;51.456;12.626;2023-04-07T14:59:53;12.70;36.00
13332;DHT22;6735;51.456;12.626;2023-04-07T15:02:19;12.80;36.20
13332;DHT22;6735;51.456;12.626;2023-04-07T15:04:44;12.70;36.40
13332;DHT22;6735;51.456;12.626;2023-04-07T15:07:09;12.80;36.70
13332;DHT22;6735;51.456;12.626;2023-04-07T15:09:35;12.90;36.50
13332;DHT22;6735;51.456;12.626;2023-04-07T15:12:00;13.00;36.70
13332;DHT22;6735;51.456;12.626;2023-04-07T15:14:26;12.90;36.90
13332;DHT22;6735;51.456;12.626;2023-04-07T15:16:52;12.90;36.60
13332;DHT22;6735;51.456;12.626;2023-04-07T15:19:17;12.90;37.00
13332;DHT22;6735;51.456;12.626;2023-04-07T15:21:43;13.10;36.90
13332;DHT22;6735;51.456;12.626;2023-04-07T15:24:08;13.10;36.70
13332;DHT22;6735;51.456;12.626;2023-04-07T15:26:34;13.00;37.40
13332;DHT22;6735;51.456;12.626;2023-04-07T15:28:59;12.80;37.50
13332;DHT22;6735;51.456;12.626;2023-04-07T15:31:25;13.00;37.20
13332;DHT22;6735;51.456;12.626;2023-04-07T15:33:52;13.10;37.20
13332;DHT22;6735;51.456;12.626;2023-04-07T15:36:18;13.20;37.20
13332;DHT22;6735;51.456;12.626;2023-04-07T15:38:43;13.10;37.50
13332;DHT22;6735;51.456;12.626;2023-04-07T15:41:13;12.90;37.80
13332;DHT22;6735;51.456;12.626;2023-04-07T15:43:39;12.80;38.20
13332;DHT22;6735;51.456;12.626;2023-04-07T15:46:05;12.80;38.20
13332;DHT22;6735;51.456;12.626;2023-04-07T15:48:30;12.80;38.30
13332;DHT22;6735;51.456;12.626;2023-04-07T15:50:56;12.30;38.30
13332;DHT22;6735;51.456;12.626;2023-04-07T15:53:21;12.10;38.80